Mhead, Massachusetts
Current Conditions -  °F | °C
As of 4:53 AM on Monday 26 Jan 2015 (Local Time) from KBVY Reporting Station
Clear Clear  
Wind Chill:   Ceiling: Unl
Heat Index:   Visibility: 10mi
Dew Point: -4°   Wind: 5mph
Humidity: 58%   Direction: 350°N
Pressure: 30.12"   Gusts: NA
Location:  42.4989°N, 70.8636°W
Report Text: KBVY 260953Z AUTO 35004KT 10SM CLR M13/M20 A3012 RMK AO2 SLP197 T11331200 $
Loading
Personal Weather Stations






























Interactive Weather Map New forecast layout! Learn more

10-Day Weather Forecast

Advertisements
Track Severe Weather on mobile